May 23, 2022

Time Code Weather Temp. Visibility Clouds Wind METAR/SPECI
1:00 am
V
50 °F 15 mi - 240°   240° 5 kt METAR CYYC 230700Z 24005KT 15SM FEW095 FEW100 FEW120 10/M05 A3004 RMK AC1AC1AC1 AC TR AC TR AC TR SLP188 DENSITY ALT 3800FT
12:00 am
V
50 °F 15 mi 15,000 ft 220°   220° 5 kt METAR CYYC 230600Z 22005KT 15SM SCT100 BKN150 BKN260 10/M05 A3004 RMK AC4AC1CI1 SLP189 DENSITY ALT 3800FT

May 22, 2022

Time Code Weather Temp. Visibility Clouds Wind METAR/SPECI
11:00 pm
V
50 °F 20 mi - 200°   200° 6 kt METAR CYYC 230500Z 20006KT 20SM FEW100 FEW120 10/M05 A3004 RMK AC1AC1 SLP188 DENSITY ALT 3800FT
10:00 pm
V
54 °F 40 mi - 190°   190° 4 kt METAR CYYC 230400Z 19004KT 40SM FEW110 FEW130 12/M07 A3004 RMK AC1AC1 AC TR SLP187 DENSITY ALT 4000FT
9:00 pm
V
57 °F 40 mi - Var   000° 0 kt METAR CYYC 230300Z 00000KT 40SM FEW120 SCT130 14/M08 A3003 RMK AC2AC1 LGT VIRGA SE-NW SLP188 DENSITY ALT 4200FT
8:00 pm
V
59 °F 40 mi - Var   Var 3 kt METAR CYYC 230200Z VRB03KT 40SM FEW095 SCT110 15/M08 A3003 RMK AC2AC2 SLP188 DENSITY ALT 4300FT
7:00 pm
V
59 °F 40 mi - 280°   280° 3 kt METAR CYYC 230100Z 28003KT 240V340 40SM FEW100 SCT110 15/M07 A3002 RMK AC2AC2 VIRGA S-W CU ASOCTD SLP192 DENSITY ALT 4400FT
6:00 pm
V
63 °F 40 mi - 320°   320° 6 kt METAR CYYC 230000Z 32006KT 270V020 40SM FEW090 FEW100 SCT110 17/M06 A3004 RMK CU2AC1AC1 AC TR VIRGA S-N / CU MDT SLP197 DENSITY ALT 4500FT
5:00 pm
V
59 °F 40 mi - 320°   320° 3 kt METAR CYYC 222300Z 32003KT 240V010 40SM SCT100 SCT230 15/M08 A3004 RMK AC3CI1 CI TR SLP200 DENSITY ALT 4400FT
4:00 pm
V
61 °F 40 mi - 050°   050° 5 kt METAR CYYC 222200Z 05005KT 310V070 40SM SCT096 SCT230 16/M07 A3005 RMK AC3CI1 CI TR SLP201 DENSITY ALT 4400FT
3:00 pm
V
59 °F 40 mi - 360°   360° 10 20 kt METAR CYYC 222100Z 36010G20KT 320V050 40SM SCT085 SCT300 15/M07 A3007 RMK AC3CI1 CI TR SLP206 DENSITY ALT 4300FT
2:00 pm
V
59 °F 40 mi - 320°   320° 10 19 kt METAR CYYC 222000Z 32010G19KT 240V030 40SM SCT088 SCT300 15/M07 A3008 RMK AC4CI1 CI TR SLP211 DENSITY ALT 4200FT
1:00 pm
V
57 °F 40 mi - 030°   030° 11 20 kt METAR CYYC 221900Z 03011G20KT 40SM SCT080 SCT300 14/M08 A3009 RMK AC3CI1 CI TR SLP215 DENSITY ALT 4200FT
12:00 pm
V
55 °F 40 mi - 330°   330° 8 16 kt METAR CYYC 221800Z 33008G16KT 310V050 40SM SCT080 SCT300 13/M07 A3010 RMK AC3CI1 CI TR SLP219 DENSITY ALT 4100FT
11:00 am
V
54 °F 40 mi - 350°   350° 12 20 kt METAR CYYC 221700Z 35012G20KT 330V030 40SM FEW080 12/M06 A3011 RMK AC2 SLP222 DENSITY ALT 4000FT
10:00 am
V
54 °F 40 mi - 010°   010° 9 kt METAR CYYC 221600Z 01009KT 330V050 40SM FEW070 12/M05 A3012 RMK AC1 AC TR SLP223 DENSITY ALT 3900FT
9:00 am
V
46 °F 40 mi - Var   Var 2 kt METAR CYYC 221500Z VRB02KT 40SM FEW300 08/M04 A3013 RMK CI1 CI TR SLP230
8:00 am
V
41 °F 40 mi - 240°   240° 7 kt METAR CYYC 221400Z 24007KT 40SM SKC 05/M04 A3013 RMK SLP234
7:00 am
V
36 °F 40 mi - 220°   220° 2 kt METAR CYYC 221300Z 22002KT 40SM FEW300 02/M04 A3014 RMK CI1 CI TR SLP240
6:00 am
V
32 °F 40 mi - 210°   210° 3 kt METAR CYYC 221200Z 21003KT 40SM FEW110 FEW300 M00/M05 A3014 RMK AC1CI1 AC TR CI TR FROIN SLP245
5:00 am
V
32 °F 20 mi - 310°   310° 3 kt METAR CYYC 221100Z 31003KT 20SM SKC 00/M05 A3015 RMK SLP245
4:00 am
V
36 °F 15 mi - 220°   220° 3 kt METAR CYYC 221000Z 22003KT 15SM SKC 02/M04 A3016 RMK SLP248
3:00 am
V
36 °F 15 mi - 220°   220° 5 kt METAR CYYC 220900Z 22005KT 15SM SKC 02/M05 A3017 RMK T SLP252
2:55 am
V
37 °F 15 mi - 220°   220° 5 kt METAR CYYC 220855Z 22005KT 15SM SKC 03/M05 A3017 RMK T SLP252
2:00 am
V
37 °F 15 mi - 200°   200° 4 kt METAR CYYC 220800Z 20004KT 15SM SKC 03/M04 A3018 RMK SLP255
1:00 am
V
37 °F 15 mi - 200°   200° 5 kt METAR CYYC 220700Z 20005KT 15SM SKC 03/M04 A3019 RMK SLP259
12:00 am
V
37 °F 15 mi - 190°   190° 9 kt METAR CYYC 220600Z 19009KT 15SM FEW082 03/M05 A3020 RMK AC1 AC TR SLP263

May 21, 2022

Time Code Weather Temp. Visibility Clouds Wind METAR/SPECI
11:00 pm
V
39 °F 15 mi - 190°   190° 8 kt METAR CYYC 220500Z 19008KT 15SM FEW080 04/M06 A3021 RMK AC1 AC TR SLP265
10:00 pm
V
43 °F 20 mi - 170°   170° 9 kt METAR CYYC 220400Z 17009KT 20SM FEW080 06/M06 A3022 RMK AC1 AC TR SLP264
9:00 pm
V
46 °F 30 mi - 140°   140° 9 kt METAR CYYC 220300Z 14009KT 30SM FEW062 FEW081 FEW300 08/M07 A3021 RMK SC1AC2CI1 SC TR CI TR SLP262
8:00 pm
V
48 °F 20 mi - 130°   130° 8 kt METAR CYYC 220200Z 13008KT 20SM SCT080 09/M07 A3021 RMK AC4 SLP264
7:00 pm
V
48 °F 40 mi 8,500 ft Var   Var 3 kt METAR CYYC 220100Z VRB03KT 40SM FEW050 SCT075 BKN085 BKN120 09/M08 A3022 RMK CU1AC4AC1AC1 CU TR TCU ASOCTD SLP269
6:00 pm
V
48 °F 40 mi 8,800 ft 140°   140° 4 kt METAR CYYC 220000Z 14004KT 120V200 40SM FEW078 BKN088 BKN120 BKN260 09/M08 A3023 RMK CU2AC3AC1CI1 CI TR LGT VIRGA ALQDS TCU ASOCTD SLP273
5:00 pm
V
52 °F 30 mi - 170°   170° 5 kt METAR CYYC 212300Z 17005KT 30SM SCT070 SCT090 SCT260 11/M07 A3024 RMK AC4AC1CI1 AC TR CI TR VIRGA W TCU ASOCTD SLP273
4:00 pm
V
48 °F 25 mi 8,000 ft 180°   180° 6 kt METAR CYYC 212200Z 18006KT 160V330 25SM SCT070TCU BKN080 BKN090 BKN260 09/M08 A3025 RMK TCU4AC1AC1CI1 CI TR VIRGA W SLP280
3:00 pm
V
46 °F 25 mi 8,500 ft 110°   110° 4 kt METAR CYYC 212100Z 11004KT 050V130 25SM SCT065TCU BKN085 08/M09 A3026 RMK TCU4AC1 VIRGA S-W / CU ASOCTD SLP282
2:00 pm
V
48 °F 25 mi 9,000 ft Var   Var 5 kt METAR CYYC 212000Z VRB05KT 25SM SCT070TCU BKN090 09/M09 A3026 RMK TCU3AC3 VIRGA SE + SW-NW SLP282
1:00 pm
V
46 °F 25 mi 8,000 ft 040°   040° 3 kt METAR CYYC 211900Z 04003KT 330V060 25SM BKN080 08/M09 A3027 RMK CU5 VIRGA E-W TCU ASOCTD SLP286
12:00 pm
V
45 °F 30 mi 26,000 ft 360°   360° 8 kt METAR CYYC 211800Z 36008KT 270V020 30SM FEW065 SCT120 BKN260 07/M08 A3027 RMK CU4AC1CC1 AC TR DIST SH E-W SLP288
11:00 am
V
46 °F 25 mi 24,000 ft 020°   020° 9 kt METAR CYYC 211700Z 02009KT 330V050 25SM SCT050 SCT066 SCT120 BKN240 08/M07 A3028 RMK CU3AC1AS1CC2 AC TR AS TR DIST VIRGA S-W SLP288
10:00 am
V
45 °F 30 mi - 030°   030° 3 kt METAR CYYC 211600Z 03003KT 330V050 30SM FEW030 SCT250 07/M07 A3028 RMK CU1CI2 DIST SH SW MTS SLP290
9:00 am
V
41 °F 35 mi 28,000 ft 350°   350° 6 kt METAR CYYC 211500Z 35006KT 35SM FEW020TCU FEW090 SCT260 BKN280 05/M03 A3029 RMK TCU1AS1CI2CS3 TCU TR SW-W SLP295
8:00 am
V
39 °F 35 mi 26,000 ft 350°   350° 7 kt METAR CYYC 211400Z 35007KT 35SM FEW090 FEW120 OVC260 04/M03 A3029 RMK AS1ACC1CS7 ACC TR HALO SLP294
7:00 am
V
36 °F 30 mi 30,000 ft 350°   350° 6 kt METAR CYYC 211300Z 35006KT 30SM FEW120 OVC300 02/M03 A3028 RMK AC1CS8 AC TR SLP294
6:00 am
V
34 °F 20 mi 26,000 ft 360°   360° 6 kt METAR CYYC 211200Z 36006KT 20SM FEW130 OVC260 01/M03 A3027 RMK AC1CS7 SLP290
5:00 am
V
34 °F 10 mi 15,000 ft 340°   340° 5 kt METAR CYYC 211100Z 34005KT 10SM FEW067 FEW110 BKN150 BKN230 01/M03 A3026 RMK AC1AC2AS4CI1 AC TR CI TR SLP286
4:00 am
V
34 °F 10 mi 6,800 ft 350°   350° 5 kt METAR CYYC 211000Z 35005KT 10SM BKN068 01/M03 A3026 RMK AC5 SLP285
3:10 am
V
36 °F 10 mi 8,500 ft 350°   350° 5 kt METAR CYYC 210910Z 35005KT 10SM FEW068 BKN085 02/M03 A3026 RMK AC2AC4 T SLP283
1:00 am
V
37 °F 10 mi 17,000 ft 340°   340° 6 kt METAR CYYC 210700Z 34006KT 10SM SCT057 BKN170 03/M03 A3025 RMK SC3AC2 SLP281
Older data

Download our app

Easy access to all aviation weather on your mobile phone and tablet.
With many features not available on the website, like offline support and a personal airport list.

We and third parties follow your internet behavior on our website with cookies. If you continue, we assume you agree with our cookie policy. Learn more